Time;durP1;ratioP1;P1;durP2;ratioP2;P2;SDS_P1;SDS_P2;PMS_P1;PMS_P2;Temp;Humidity;BMP_temperature;BMP_pressure;BME280_temperature;BME280_humidity;BME280_pressure;Samples;Min_cycle;Max_cycle;Signal;HPM_P1;HPM_P2
2024/01/25 00:01:55;;;;;;;23.58;13.00;;;;;;;1.91;71.49;98617.00;6275764;22;20309;-59
2024/01/25 00:04:20;;;;;;;29.17;14.55;;;;;;;2.00;71.22;98640.19;6274274;22;20087;-57
2024/01/25 00:06:46;;;;;;;27.60;13.55;;;;;;;2.01;70.58;98636.59;6274709;22;20388;-60
2024/01/25 00:09:11;;;;;;;26.13;14.40;;;;;;;1.71;71.01;98584.84;6275544;22;20309;-59
2024/01/25 00:11:37;;;;;;;28.80;14.30;;;;;;;2.00;70.72;98627.81;6274872;22;20014;-59
2024/01/25 00:14:03;;;;;;;27.75;14.57;;;;;;;1.95;71.23;98611.44;6277127;22;20004;-60
2024/01/25 00:16:28;;;;;;;26.90;14.77;;;;;;;1.94;70.96;98630.03;6277601;22;20038;-59
2024/01/25 00:18:54;;;;;;;28.88;14.93;;;;;;;1.96;70.64;98609.66;6277621;22;20031;-61
2024/01/25 00:21:20;;;;;;;30.42;16.48;;;;;;;1.61;71.41;98558.19;6276265;22;20358;-55
2024/01/25 00:23:45;;;;;;;27.55;14.73;;;;;;;1.89;71.31;98605.69;6276989;22;20031;-54
2024/01/25 00:26:11;;;;;;;29.33;15.63;;;;;;;1.80;71.35;98596.56;6278276;22;20008;-52
2024/01/25 00:28:36;;;;;;;29.88;15.68;;;;;;;1.86;71.06;98590.94;6277448;22;20304;-62
2024/01/25 00:31:02;;;;;;;29.48;15.32;;;;;;;1.85;71.80;98597.16;6275001;22;20201;-53
2024/01/25 00:33:27;;;;;;;33.90;15.27;;;;;;;1.82;72.19;98598.19;6277478;22;20042;-53
2024/01/25 00:35:53;;;;;;;27.88;15.50;;;;;;;1.82;72.50;98600.81;6277564;22;20027;-58
2024/01/25 00:38:19;;;;;;;30.67;15.48;;;;;;;1.64;71.83;98559.78;6275899;22;20073;-58
2024/01/25 00:40:45;;;;;;;28.25;15.90;;;;;;;1.68;72.69;98585.00;6277036;22;20388;-57
2024/01/25 00:43:11;;;;;;;31.75;16.65;;;;;;;1.88;72.81;98596.94;6277384;22;20026;-56
2024/01/25 00:45:37;;;;;;;23.67;13.65;;;;;;;1.90;71.28;98586.28;6277628;22;20421;-64
2024/01/25 00:48:03;;;;;;;29.30;15.27;;;;;;;1.86;72.02;98590.94;6275399;22;20312;-61
2024/01/25 00:50:29;;;;;;;28.17;13.25;;;;;;;1.85;71.19;98582.16;6276019;22;20066;-59
2024/01/25 00:52:55;;;;;;;31.65;15.38;;;;;;;1.85;71.26;98579.50;6277097;22;20091;-62
2024/01/25 00:55:21;;;;;;;30.92;16.48;;;;;;;1.78;71.41;98572.94;6276814;22;20018;-61
2024/01/25 00:57:46;;;;;;;26.10;14.65;;;;;;;1.49;71.94;98535.22;6276957;22;20027;-61
2024/01/25 01:00:12;;;;;;;31.30;15.18;;;;;;;1.70;72.22;98570.78;6276287;22;20515;-59
2024/01/25 01:02:44;;;;;;;26.75;15.18;;;;;;;1.72;72.46;98562.78;6277068;22;20012;-66
2024/01/25 01:05:11;;;;;;;24.27;14.15;;;;;;;1.72;71.95;98557.50;6276645;22;20011;-62
2024/01/25 01:07:39;;;;;;;30.17;15.48;;;;;;;1.71;72.33;98551.38;6276036;22;20011;-62
2024/01/25 01:10:05;;;;;;;29.17;15.18;;;;;;;1.66;72.02;98542.91;6275729;22;20035;-62
2024/01/25 01:12:31;;;;;;;32.80;15.52;;;;;;;1.32;72.53;98496.75;6276504;22;20023;-58
2024/01/25 01:14:56;;;;;;;26.25;14.13;;;;;;;1.66;72.11;98539.41;6276842;22;19996;-53
2024/01/25 01:17:22;;;;;;;27.75;14.57;;;;;;;1.70;72.65;98554.13;6276986;22;20003;-55
2024/01/25 01:19:47;;;;;;;27.75;15.07;;;;;;;1.72;72.59;98539.03;6276560;22;19996;-54
2024/01/25 01:22:13;;;;;;;33.53;17.17;;;;;;;1.76;72.49;98543.16;6275709;22;20099;-54
2024/01/25 01:24:38;;;;;;;30.40;15.75;;;;;;;1.75;72.46;98532.69;6276648;22;20007;-55
2024/01/25 01:27:04;;;;;;;32.95;15.68;;;;;;;1.72;72.23;98542.50;6275274;22;20069;-54
2024/01/25 01:29:29;;;;;;;31.30;16.10;;;;;;;1.65;72.38;98519.25;6276789;22;20046;-56
2024/01/25 01:31:55;;;;;;;32.33;17.02;;;;;;;1.65;73.31;98537.72;6276346;22;20007;-61
2024/01/25 01:34:20;;;;;;;30.40;16.23;;;;;;;1.66;72.55;98527.09;6276348;22;20401;-61
2024/01/25 01:36:46;;;;;;;30.63;16.30;;;;;;;1.71;71.72;98524.16;6276670;22;20004;-65
2024/01/25 01:39:11;;;;;;;31.55;15.98;;;;;;;1.65;72.68;98524.53;6276442;22;20003;-62
2024/01/25 01:41:37;;;;;;;27.25;15.05;;;;;;;1.61;72.43;98528.31;6275823;22;20015;-62
2024/01/25 01:44:03;;;;;;;32.83;16.60;;;;;;;1.61;72.81;98516.00;6276474;22;20007;-58
2024/01/25 01:46:28;;;;;;;28.05;14.55;;;;;;;1.62;72.63;98511.53;6276133;22;20000;-60
2024/01/25 01:48:54;;;;;;;27.85;14.23;;;;;;;1.60;71.64;98526.63;6276568;22;20400;-61
2024/01/25 01:51:20;;;;;;;32.33;15.00;;;;;;;1.64;71.75;98526.34;6275551;22;20432;-61
2024/01/25 01:53:46;;;;;;;23.10;12.48;;;;;;;1.42;71.39;98482.03;6275888;22;20003;-60
2024/01/25 01:56:14;;;;;;;26.83;13.27;;;;;;;1.64;70.88;98509.66;6276389;22;20021;-65
2024/01/25 01:58:40;;;;;;;27.45;14.15;;;;;;;1.51;71.55;98502.53;6275617;22;20310;-60
2024/01/25 02:01:05;;;;;;;30.38;14.68;;;;;;;1.60;71.05;98521.34;6275013;22;20000;-58
2024/01/25 02:03:31;;;;;;;27.63;13.85;;;;;;;1.55;71.13;98497.91;6276231;22;20038;-59
2024/01/25 02:06:02;;;;;;;25.20;14.18;;;;;;;1.55;71.32;98513.72;6276257;22;19995;-61
2024/01/25 02:08:29;;;;;;;25.23;13.45;;;;;;;1.54;71.14;98497.06;6275042;22;20426;-61
2024/01/25 02:10:54;;;;;;;23.48;12.52;;;;;;;1.63;70.67;98508.81;6275959;22;20267;-61
2024/01/25 02:13:21;;;;;;;25.40;12.73;;;;;;;1.60;70.74;98508.16;6275219;22;20015;-60
2024/01/25 02:15:46;;;;;;;19.77;11.57;;;;;;;1.35;70.58;98478.09;6275761;22;20003;-60
2024/01/25 02:18:12;;;;;;;21.10;12.00;;;;;;;1.55;71.17;98503.19;6275476;22;20505;-65
2024/01/25 02:20:38;;;;;;;21.92;12.95;;;;;;;1.55;70.67;98509.31;6275208;22;20004;-62
2024/01/25 02:23:04;;;;;;;18.25;11.13;;;;;;;1.55;70.83;98517.22;6276793;22;20353;-62
2024/01/25 02:25:29;;;;;;;22.17;11.98;;;;;;;1.60;71.24;98513.44;6275365;22;20003;-58
2024/01/25 02:27:55;;;;;;;22.08;12.48;;;;;;;1.54;71.43;98520.81;6273983;22;20304;-60
2024/01/25 02:30:20;;;;;;;21.30;11.52;;;;;;;1.50;71.29;98494.72;6276327;22;20231;-60
2024/01/25 02:32:46;;;;;;;22.60;12.35;;;;;;;1.57;71.63;98506.59;6276021;22;20000;-64
2024/01/25 02:35:11;;;;;;;19.63;11.65;;;;;;;1.56;71.09;98513.63;6275988;22;20057;-61
2024/01/25 02:37:37;;;;;;;20.52;11.65;;;;;;;1.53;71.29;98495.38;6274722;22;20349;-59
2024/01/25 02:40:04;;;;;;;19.70;11.43;;;;;;;1.18;71.30;98456.28;6276498;22;20011;-61
2024/01/25 02:42:30;;;;;;;19.48;11.50;;;;;;;1.49;71.71;98500.94;6276418;22;20420;-60
2024/01/25 02:44:55;;;;;;;20.60;11.73;;;;;;;1.20;71.87;98457.03;6275181;22;20078;-59
2024/01/25 02:47:21;;;;;;;22.75;12.00;;;;;;;1.46;71.99;98504.66;6275605;22;20012;-60
2024/01/25 02:49:46;;;;;;;20.85;10.65;;;;;;;1.48;71.62;98501.88;6274928;22;20008;-60
2024/01/25 02:52:12;;;;;;;20.42;12.35;;;;;;;1.46;72.30;98496.72;6276568;22;20031;-56
2024/01/25 02:54:37;;;;;;;22.20;12.70;;;;;;;1.45;72.07;98505.59;6274072;22;20011;-59
2024/01/25 02:57:04;;;;;;;21.00;12.07;;;;;;;1.42;72.50;98497.84;6275628;22;20018;-61
2024/01/25 02:59:29;;;;;;;22.67;12.23;;;;;;;1.34;72.91;98468.50;6276362;22;20400;-59
2024/01/25 03:01:55;;;;;;;21.13;11.65;;;;;;;1.40;72.55;98489.19;6275936;22;20010;-59
2024/01/25 03:04:20;;;;;;;23.50;11.63;;;;;;;1.37;73.16;98492.88;6275309;22;20035;-60
2024/01/25 03:06:46;;;;;;;22.65;11.82;;;;;;;1.16;72.22;98445.00;6275013;22;20137;-61
2024/01/25 03:09:11;;;;;;;22.40;12.60;;;;;;;1.31;72.94;98468.69;6276455;22;20007;-60
2024/01/25 03:11:37;;;;;;;23.05;11.90;;;;;;;1.42;72.17;98495.22;6275809;22;20002;-59
2024/01/25 03:14:02;;;;;;;22.75;12.55;;;;;;;1.34;72.28;98465.84;6274456;22;20007;-59
2024/01/25 03:16:28;;;;;;;22.40;12.15;;;;;;;1.37;72.42;98474.44;6275736;22;20077;-60
2024/01/25 03:18:53;;;;;;;22.80;12.18;;;;;;;1.07;72.11;98433.25;6276174;22;20022;-61
2024/01/25 03:21:19;;;;;;;21.40;11.52;;;;;;;1.33;72.41;98469.44;6275154;22;20000;-61
2024/01/25 03:23:45;;;;;;;23.73;12.48;;;;;;;1.24;72.68;98453.28;6275552;22;20030;-61
2024/01/25 03:26:10;;;;;;;20.83;11.63;;;;;;;1.28;72.25;98457.41;6274986;22;20039;-61
2024/01/25 03:28:36;;;;;;;19.70;11.85;;;;;;;1.29;72.70;98455.59;6274391;22;20015;-62
2024/01/25 03:31:01;;;;;;;21.02;11.30;;;;;;;1.30;71.82;98478.38;6275188;22;20407;-59
2024/01/25 03:33:28;;;;;;;22.20;12.13;;;;;;;0.75;71.74;98378.19;6275596;22;20065;-59
2024/01/25 03:35:53;;;;;;;20.77;11.52;;;;;;;1.23;71.32;98458.63;6275390;22;20090;-59
2024/01/25 03:38:19;;;;;;;23.05;12.73;;;;;;;1.18;71.69;98447.53;6275037;22;20027;-58
2024/01/25 03:40:44;;;;;;;23.40;11.60;;;;;;;1.21;72.22;98456.13;6275693;22;20003;-59
2024/01/25 03:43:10;;;;;;;19.50;10.95;;;;;;;1.20;71.62;98464.94;6274346;22;20103;-57
2024/01/25 03:45:35;;;;;;;22.58;10.77;;;;;;;1.20;71.80;98480.75;6275808;22;20004;-62
2024/01/25 03:48:01;;;;;;;21.38;11.50;;;;;;;1.17;71.05;98457.22;6275363;22;20003;-60
2024/01/25 03:50:27;;;;;;;20.10;10.40;;;;;;;1.18;70.92;98448.38;6277379;22;20000;-60
2024/01/25 03:52:54;;;;;;;19.80;11.55;;;;;;;1.16;71.72;98450.25;6277940;22;20077;-60
2024/01/25 03:55:20;;;;;;;18.23;10.70;;;;;;;1.11;71.76;98442.66;6277283;22;20016;-60
2024/01/25 03:57:45;;;;;;;19.83;10.30;;;;;;;1.09;71.81;98430.53;6277122;22;20069;-62
2024/01/25 04:00:11;;;;;;;17.08;10.20;;;;;;;1.12;71.40;98428.53;6277997;22;20389;-61
2024/01/25 04:02:37;;;;;;;17.95;10.40;;;;;;;1.19;71.23;98439.53;6277265;22;20011;-62
2024/01/25 04:05:04;;;;;;;19.33;10.55;;;;;;;1.20;71.29;98435.94;6277082;22;20007;-60
2024/01/25 04:07:29;;;;;;;17.15;10.07;;;;;;;1.14;71.23;98466.19;6277563;22;20004;-60
2024/01/25 04:09:55;;;;;;;18.77;10.40;;;;;;;1.18;71.20;98431.72;6277568;22;20000;-60
2024/01/25 04:12:20;;;;;;;18.33;10.02;;;;;;;0.94;71.17;98393.66;6276001;22;20080;-59
2024/01/25 04:14:46;;;;;;;17.75;10.30;;;;;;;1.18;71.20;98440.47;6277562;22;20075;-60
2024/01/25 04:17:11;;;;;;;20.30;10.18;;;;;;;1.22;70.91;98442.00;6277957;22;20007;-58
2024/01/25 04:19:37;;;;;;;26.17;11.23;;;;;;;1.19;71.18;98431.59;6277087;22;20038;-61
2024/01/25 04:22:02;;;;;;;17.95;10.73;;;;;;;1.29;70.78;98442.41;6275764;22;20003;-60
2024/01/25 04:24:28;;;;;;;19.17;9.88;;;;;;;1.20;70.53;98446.47;6277009;22;20008;-62
2024/01/25 04:26:53;;;;;;;18.00;10.27;;;;;;;1.20;71.07;98449.13;6277779;22;20004;-62
2024/01/25 04:29:19;;;;;;;19.55;10.32;;;;;;;1.21;70.47;98431.53;6277303;22;20004;-69
2024/01/25 04:31:45;;;;;;;15.43;9.77;;;;;;;0.88;71.02;98394.06;6277746;22;20090;-63
2024/01/25 04:34:13;;;;;;;17.08;10.15;;;;;;;0.97;71.22;98414.56;6277293;22;19999;-60
2024/01/25 04:36:38;;;;;;;19.73;10.40;;;;;;;1.25;70.47;98440.91;6277945;22;20011;-56
2024/01/25 04:39:04;;;;;;;17.88;9.63;;;;;;;1.16;71.17;98452.91;6277071;22;20369;-60
2024/01/25 04:41:30;;;;;;;20.85;10.35;;;;;;;1.12;71.29;98444.38;6275547;22;20019;-62
2024/01/25 04:43:55;;;;;;;17.25;9.93;;;;;;;1.04;70.71;98429.97;6277571;22;20046;-60
2024/01/25 04:46:21;;;;;;;18.33;9.85;;;;;;;1.09;71.17;98433.16;6277491;22;20042;-67
2024/01/25 04:48:46;;;;;;;16.80;9.68;;;;;;;1.17;71.13;98441.41;6277302;22;20385;-62
2024/01/25 04:51:19;;;;;;;14.98;9.10;;;;;;;1.25;70.35;98454.97;6276441;22;20397;-60
2024/01/25 04:53:45;;;;;;;18.65;10.07;;;;;;;1.18;70.28;98448.38;6276138;22;20010;-60
2024/01/25 04:56:11;;;;;;;21.17;10.07;;;;;;;0.91;70.75;98388.59;6276794;22;20106;-60
2024/01/25 04:58:36;;;;;;;18.98;9.85;;;;;;;1.20;71.09;98449.13;6276160;22;20053;-62
2024/01/25 05:01:02;;;;;;;18.23;9.82;;;;;;;1.14;71.04;98452.16;6274515;22;20008;-62
2024/01/25 05:03:27;;;;;;;17.05;8.88;;;;;;;1.28;69.98;98438.94;6277006;22;20003;-62
2024/01/25 05:05:53;;;;;;;16.17;9.35;;;;;;;1.27;69.95;98431.13;6277176;22;20301;-63
2024/01/25 05:08:18;;;;;;;16.38;9.68;;;;;;;1.14;70.75;98444.25;6275893;22;20286;-61
2024/01/25 05:10:44;;;;;;;16.23;9.63;;;;;;;1.10;70.67;98430.44;6274717;22;20027;-61
2024/01/25 05:13:10;;;;;;;17.05;10.02;;;;;;;0.97;71.26;98429.53;6276211;22;20003;-60
2024/01/25 05:15:35;;;;;;;21.48;9.52;;;;;;;1.17;69.90;98441.41;6277227;22;20003;-61
2024/01/25 05:18:02;;;;;;;17.77;9.65;;;;;;;0.99;71.03;98439.03;6249799;22;20003;-59
2024/01/25 05:20:34;;;;;;;17.17;8.93;;;;;;;1.04;70.81;98446.63;6276592;22;20057;-61
2024/01/25 05:23:01;;;;;;;16.63;9.50;;;;;;;0.84;70.51;98408.38;6276574;22;20078;-61
2024/01/25 05:25:27;;;;;;;16.42;9.60;;;;;;;1.01;70.48;98452.09;6275864;22;20087;-62
2024/01/25 05:27:54;;;;;;;15.07;9.43;;;;;;;1.07;70.27;98432.41;6276518;22;20098;-67
2024/01/25 05:30:20;;;;;;;16.20;9.63;;;;;;;0.95;70.76;98424.31;6276749;22;20000;-61
2024/01/25 05:32:46;;;;;;;16.90;9.85;;;;;;;0.95;70.84;98441.94;6275952;22;20010;-61
2024/01/25 05:35:11;;;;;;;22.65;9.82;;;;;;;1.12;69.10;98438.22;6276169;22;20000;-65
2024/01/25 05:37:37;;;;;;;17.67;9.65;;;;;;;1.05;69.43;98436.94;6275560;22;20004;-62
2024/01/25 05:40:03;;;;;;;17.40;9.77;;;;;;;1.02;69.65;98421.31;6275291;22;20031;-62
2024/01/25 05:42:29;;;;;;;21.10;10.77;;;;;;;1.04;69.29;98435.25;6276402;22;20011;-60
2024/01/25 05:44:55;;;;;;;17.80;9.63;;;;;;;1.06;68.88;98433.34;6275486;22;20008;-64
2024/01/25 05:47:21;;;;;;;16.40;9.40;;;;;;;1.11;68.46;98455.00;6276511;22;20408;-63
2024/01/25 05:49:46;;;;;;;16.52;9.52;;;;;;;1.11;67.71;98439.19;6275760;22;19999;-63
2024/01/25 05:52:12;;;;;;;16.17;9.25;;;;;;;1.03;68.29;98449.38;6274586;22;20027;-62
2024/01/25 05:54:37;;;;;;;17.52;9.45;;;;;;;1.05;68.28;98434.31;6275409;22;20014;-62
2024/01/25 05:57:04;;;;;;;17.65;10.07;;;;;;;1.03;68.83;98436.19;6276494;22;20019;-62
2024/01/25 05:59:30;;;;;;;18.40;10.20;;;;;;;1.02;68.44;98440.59;6276354;22;20000;-64
2024/01/25 06:01:55;;;;;;;19.77;10.57;;;;;;;1.07;68.78;98438.50;6275733;22;20309;-64
2024/01/25 06:04:21;;;;;;;18.70;10.25;;;;;;;1.05;68.39;98427.22;6277034;22;20007;-62
2024/01/25 06:06:47;;;;;;;19.85;10.43;;;;;;;1.13;68.60;98426.75;6275924;22;20293;-63
2024/01/25 06:09:14;;;;;;;17.35;10.25;;;;;;;1.19;67.84;98428.97;6276128;22;19999;-62
2024/01/25 06:11:40;;;;;;;20.13;10.85;;;;;;;1.18;67.78;98427.28;6275010;22;20008;-59
2024/01/25 06:14:06;;;;;;;20.85;11.60;;;;;;;1.12;68.09;98427.69;6275940;22;20052;-62
2024/01/25 06:16:31;;;;;;;21.65;11.50;;;;;;;1.10;68.04;98448.03;6275663;22;20030;-58
2024/01/25 06:18:58;;;;;;;18.83;10.95;;;;;;;0.96;67.67;98398.84;6276113;22;20385;-64
2024/01/25 06:21:23;;;;;;;19.88;12.25;;;;;;;1.15;67.79;98424.84;6275842;22;20011;-62
2024/01/25 06:23:49;;;;;;;21.48;11.85;;;;;;;1.16;67.94;98423.06;6275993;22;20010;-64
2024/01/25 06:26:14;;;;;;;22.52;12.48;;;;;;;1.12;67.53;98427.69;6275729;22;20289;-63
2024/01/25 06:28:41;;;;;;;22.15;12.07;;;;;;;1.17;67.89;98437.94;6276125;22;20373;-63
2024/01/25 06:31:06;;;;;;;20.83;11.98;;;;;;;1.18;68.04;98429.09;6276375;22;20000;-63
2024/01/25 06:33:32;;;;;;;21.70;12.07;;;;;;;1.04;68.17;98425.53;6276414;22;20304;-63
2024/01/25 06:35:58;;;;;;;23.42;11.88;;;;;;;1.10;68.57;98430.44;6275925;22;20335;-65
2024/01/25 06:38:23;;;;;;;19.88;11.77;;;;;;;1.03;68.04;98409.84;6274597;22;20080;-61
2024/01/25 06:40:49;;;;;;;24.70;13.60;;;;;;;1.17;68.08;98430.03;6275077;22;20010;-64
2024/01/25 06:43:15;;;;;;;22.65;12.38;;;;;;;1.18;67.84;98424.66;6274872;22;20015;-63
2024/01/25 06:45:40;;;;;;;26.85;13.38;;;;;;;1.22;67.11;98423.53;6275271;22;19999;-62
2024/01/25 06:48:08;;;;;;;25.98;13.68;;;;;;;1.09;67.86;98419.97;6275246;22;20285;-63
2024/01/25 06:50:35;;;;;;;22.25;13.15;;;;;;;1.16;67.91;98428.34;6276369;22;20008;-62
2024/01/25 06:53:00;;;;;;;25.25;14.30;;;;;;;1.20;67.66;98430.66;6276369;22;20068;-63
2024/01/25 06:55:26;;;;;;;23.80;13.18;;;;;;;1.14;67.53;98431.94;6276045;22;20134;-62
2024/01/25 06:57:52;;;;;;;25.00;12.77;;;;;;;1.03;67.92;98394.03;6275467;22;20419;-64
2024/01/25 07:00:18;;;;;;;24.50;12.48;;;;;;;1.27;67.41;98431.97;6249053;22;20559;-63
2024/01/25 07:02:44;;;;;;;24.65;13.15;;;;;;;1.33;66.94;98429.88;6276169;22;20266;-64
2024/01/25 07:05:10;;;;;;;23.45;13.05;;;;;;;0.94;67.51;98396.28;6275576;22;20034;-63
2024/01/25 07:07:35;;;;;;;27.17;13.60;;;;;;;1.18;68.23;98431.72;6274209;22;20301;-63
2024/01/25 07:10:01;;;;;;;26.52;14.13;;;;;;;1.28;67.40;98422.25;6276258;22;20027;-64
2024/01/25 07:12:27;;;;;;;22.52;12.50;;;;;;;1.41;67.11;98438.13;6275248;22;20065;-64
2024/01/25 07:14:52;;;;;;;22.67;12.52;;;;;;;1.38;67.22;98427.78;6275239;22;20392;-62
2024/01/25 07:17:18;;;;;;;25.00;12.25;;;;;;;1.28;67.07;98406.44;6275746;22;20161;-63
2024/01/25 07:19:44;;;;;;;23.23;13.48;;;;;;;1.23;67.09;98406.75;6275841;22;20004;-64
2024/01/25 07:22:11;;;;;;;22.17;12.25;;;;;;;1.26;66.86;98400.44;6248612;22;20007;-63
2024/01/25 07:24:36;;;;;;;19.55;11.77;;;;;;;1.33;66.29;98429.88;6276757;22;20000;-63
2024/01/25 07:27:02;;;;;;;23.10;13.55;;;;;;;0.99;67.02;98391.59;6276213;22;20359;-62
2024/01/25 07:29:28;;;;;;;26.67;13.23;;;;;;;1.28;66.44;98433.66;6278292;22;20008;-63
2024/01/25 07:31:54;;;;;;;22.58;12.77;;;;;;;1.21;66.83;98420.97;6277897;22;20003;-64
2024/01/25 07:34:19;;;;;;;23.58;13.02;;;;;;;1.32;66.86;98436.09;6250894;22;20455;-64
2024/01/25 07:36:45;;;;;;;24.92;13.20;;;;;;;1.27;66.83;98431.13;6277955;22;20011;-63
2024/01/25 07:39:11;;;;;;;22.65;12.48;;;;;;;1.29;66.74;98435.38;6275974;22;20003;-62
2024/01/25 07:41:37;;;;;;;20.38;12.40;;;;;;;1.21;67.24;98445.56;6277610;22;20052;-64
2024/01/25 07:44:03;;;;;;;24.45;12.73;;;;;;;0.96;66.84;98397.03;6277943;22;20008;-64
2024/01/25 07:46:28;;;;;;;20.38;12.32;;;;;;;1.39;65.67;98432.97;6277662;22;20000;-63
2024/01/25 07:48:54;;;;;;;25.10;12.20;;;;;;;1.25;66.33;98441.78;6277748;22;19999;-64
2024/01/25 07:51:20;;;;;;;18.02;10.32;;;;;;;1.19;66.32;98439.53;6277912;22;20004;-63
2024/01/25 07:53:45;;;;;;;22.67;12.55;;;;;;;1.23;66.58;98437.53;6277484;22;20274;-64
2024/01/25 07:56:11;;;;;;;19.50;11.68;;;;;;;1.22;66.47;98443.75;6277565;22;20003;-64
2024/01/25 07:58:37;;;;;;;23.45;12.43;;;;;;;1.16;67.25;98431.81;6277271;22;20410;-64
2024/01/25 08:01:04;;;;;;;22.70;12.43;;;;;;;1.30;66.53;98444.09;6276716;22;20454;-64
2024/01/25 08:03:30;;;;;;;19.88;11.35;;;;;;;1.25;66.45;98439.16;6275638;22;20000;-64
2024/01/25 08:05:55;;;;;;;22.90;12.23;;;;;;;1.08;66.72;98421.75;6250966;22;20008;-63
2024/01/25 08:08:21;;;;;;;18.77;10.02;;;;;;;1.34;66.09;98442.97;6277502;22;20018;-64
2024/01/25 08:10:47;;;;;;;15.98;8.85;;;;;;;1.41;65.47;98444.25;6274281;22;20780;-69
2024/01/25 08:13:13;;;;;;;19.23;11.13;;;;;;;1.07;66.26;98417.44;6272530;22;19996;-72
2024/01/25 08:15:38;;;;;;;22.08;12.07;;;;;;;0.96;66.46;98426.03;6275659;22;20042;-76
2024/01/25 08:18:04;;;;;;;19.77;12.18;;;;;;;1.05;66.72;98450.13;6277196;22;20397;-74
2024/01/25 08:20:29;;;;;;;19.23;11.60;;;;;;;1.13;66.57;98439.91;6276710;22;20011;-68
2024/01/25 08:22:55;;;;;;;20.63;11.88;;;;;;;0.87;66.77;98384.47;6274829;22;20091;-66
2024/01/25 08:25:20;;;;;;;20.65;11.75;;;;;;;1.26;66.31;98435.56;6276319;22;20014;-65
2024/01/25 08:27:46;;;;;;;22.02;11.73;;;;;;;1.36;65.99;98433.19;6276742;22;20022;-62
2024/01/25 08:30:12;;;;;;;17.08;10.15;;;;;;;1.55;64.69;98432.81;6275823;22;20139;-66
2024/01/25 08:32:37;;;;;;;18.98;10.02;;;;;;;1.49;64.85;98425.31;6276633;22;19999;-58
2024/01/25 08:35:03;;;;;;;17.80;10.68;;;;;;;1.34;64.87;98399.94;6275034;22;20445;-68
2024/01/25 08:37:29;;;;;;;21.67;10.68;;;;;;;1.62;64.14;98435.03;6276525;22;20003;-63
2024/01/25 08:39:54;;;;;;;18.80;10.38;;;;;;;1.61;64.24;98435.97;6276474;22;20134;-61
2024/01/25 08:42:21;;;;;;;17.75;9.93;;;;;;;1.56;64.20;98431.84;6274488;22;20065;-62
2024/01/25 08:44:49;;;;;;;18.45;10.38;;;;;;;1.21;64.71;98382.28;6275706;22;20008;-58
2024/01/25 08:47:16;;;;;;;18.38;10.77;;;;;;;1.59;64.77;98441.38;6276454;22;20007;-63
2024/01/25 08:49:42;;;;;;;17.85;10.52;;;;;;;1.67;63.56;98422.38;6275209;22;20008;-64
2024/01/25 08:52:08;;;;;;;20.00;10.30;;;;;;;1.62;64.74;98430.63;6276225;22;20099;-63
2024/01/25 08:54:33;;;;;;;16.40;10.18;;;;;;;1.72;64.17;98438.78;6275261;22;20003;-65
2024/01/25 08:56:59;;;;;;;21.65;10.45;;;;;;;1.63;63.94;98421.75;6276279;22;20018;-59
2024/01/25 08:59:26;;;;;;;16.08;10.38;;;;;;;1.70;63.78;98432.75;6274484;22;20007;-57
2024/01/25 09:01:52;;;;;;;19.35;9.82;;;;;;;1.64;63.53;98427.88;6275138;22;20000;-62
2024/01/25 09:04:18;;;;;;;15.68;10.00;;;;;;;1.61;63.82;98435.97;6276221;22;20015;-63
2024/01/25 09:06:43;;;;;;;18.90;10.25;;;;;;;1.56;63.54;98429.22;6276405;22;20014;-63
2024/01/25 09:09:10;;;;;;;18.08;10.35;;;;;;;1.55;63.89;98429.31;6276157;22;20039;-64
2024/01/25 09:11:36;;;;;;;19.80;10.52;;;;;;;1.45;64.02;98408.00;6275361;22;20393;-63
2024/01/25 09:14:01;;;;;;;22.33;10.35;;;;;;;1.26;63.97;98377.56;6275154;22;19999;-59
2024/01/25 09:16:27;;;;;;;17.88;10.50;;;;;;;1.29;63.71;98381.75;6275595;22;20074;-64
2024/01/25 09:18:53;;;;;;;17.15;10.93;;;;;;;1.55;64.46;98422.25;6275927;22;20714;-64
2024/01/25 09:21:18;;;;;;;15.95;9.82;;;;;;;1.61;63.36;98439.47;6274657;22;20086;-67
2024/01/25 09:23:43;;;;;;;16.90;9.50;;;;;;;1.51;63.57;98427.81;6275116;22;20384;-63
2024/01/25 09:26:09;;;;;;;16.15;10.18;;;;;;;1.49;63.72;98422.66;6275111;22;20006;-64
2024/01/25 09:28:34;;;;;;;15.60;9.55;;;;;;;1.35;63.18;98391.06;6275530;22;20073;-66
2024/01/25 09:31:00;;;;;;;16.48;9.40;;;;;;;1.64;62.95;98430.50;6275981;22;20338;-66
2024/01/25 09:33:25;;;;;;;18.10;10.20;;;;;;;1.49;63.03;98424.44;6275573;22;20004;-66
2024/01/25 09:35:51;;;;;;;15.35;9.38;;;;;;;1.46;63.49;98432.56;6275089;22;20014;-64
2024/01/25 09:38:16;;;;;;;18.45;10.13;;;;;;;1.43;63.86;98413.34;6275820;22;20000;-65
2024/01/25 09:40:42;;;;;;;14.02;8.75;;;;;;;1.34;63.22;98421.03;6275416;22;20000;-65
2024/01/25 09:43:08;;;;;;;16.70;9.43;;;;;;;1.48;63.06;98428.03;6274741;22;20011;-67
2024/01/25 09:45:34;;;;;;;13.50;9.43;;;;;;;1.44;63.25;98440.56;6275743;22;20409;-66
2024/01/25 09:48:04;;;;;;;16.38;9.50;;;;;;;1.47;63.24;98418.44;6275326;22;20043;-65
2024/01/25 09:50:33;;;;;;;16.15;9.35;;;;;;;1.51;62.62;98423.41;6273179;22;20008;-64
2024/01/25 09:52:59;;;;;;;17.00;9.77;;;;;;;1.42;63.14;98401.13;6275266;22;20000;-63
2024/01/25 09:55:26;;;;;;;16.55;9.82;;;;;;;1.52;62.89;98409.28;6275018;22;20303;-65
2024/01/25 09:57:58;;;;;;;14.65;8.90;;;;;;;1.52;63.09;98416.31;6274139;22;20004;-66
2024/01/25 10:00:24;;;;;;;15.82;10.05;;;;;;;1.38;62.75;98389.09;6274862;22;20003;-66
2024/01/25 10:02:50;;;;;;;16.23;9.02;;;;;;;1.47;62.81;98408.75;6275278;22;20007;-66
2024/01/25 10:05:18;;;;;;;18.40;9.35;;;;;;;1.49;62.80;98404.22;6274391;22;20003;-67
2024/01/25 10:07:46;;;;;;;14.27;9.18;;;;;;;1.54;63.13;98409.16;6273903;22;20106;-71
2024/01/25 10:10:13;;;;;;;15.95;9.50;;;;;;;1.35;62.86;98360.28;6272504;22;20301;-73
2024/01/25 10:12:43;;;;;;;15.07;9.00;;;;;;;1.52;63.05;98419.81;6273394;22;20096;-72
2024/01/25 10:15:09;;;;;;;17.25;10.02;;;;;;;1.33;62.81;98374.50;6273069;22;20405;-73
2024/01/25 10:17:35;;;;;;;16.85;9.85;;;;;;;1.52;62.67;98398.72;6273175;22;20008;-72
2024/01/25 10:20:00;;;;;;;15.73;10.07;;;;;;;1.48;63.62;98386.69;6274421;22;20061;-75
2024/01/25 10:22:27;;;;;;;15.00;9.52;;;;;;;1.54;62.68;98401.25;6273380;22;20003;-74
2024/01/25 10:24:55;;;;;;;15.60;9.68;;;;;;;1.52;63.53;98397.88;6274874;22;20014;-70
2024/01/25 10:27:22;;;;;;;17.55;9.50;;;;;;;1.61;62.87;98413.09;6274721;22;20073;-73
2024/01/25 10:29:49;;;;;;;17.45;8.82;;;;;;;1.54;63.52;98398.59;6275789;22;20015;-73
2024/01/25 10:32:15;;;;;;;16.63;9.73;;;;;;;1.41;64.17;98398.56;6275882;22;20000;-73
2024/01/25 10:34:42;;;;;;;21.63;10.70;;;;;;;1.46;63.50;98388.59;6275230;22;20011;-73
2024/01/25 10:37:08;;;;;;;19.55;9.93;;;;;;;1.54;63.72;98395.97;6273967;22;20011;-72
2024/01/25 10:39:34;;;;;;;15.75;9.80;;;;;;;1.59;64.27;98409.72;6276037;22;19999;-72
2024/01/25 10:42:01;;;;;;;18.70;10.38;;;;;;;1.58;64.29;98410.66;6279194;22;20088;-71
2024/01/25 10:44:27;;;;;;;16.42;9.88;;;;;;;1.61;63.96;98406.97;6294733;22;20012;-72
2024/01/25 10:46:56;;;;;;;20.13;10.70;;;;;;;1.58;64.36;98411.50;6290237;22;20004;-74
2024/01/25 10:49:21;;;;;;;15.13;9.88;;;;;;;1.56;63.55;98409.91;6291037;22;20011;-73
2024/01/25 10:51:48;;;;;;;19.08;10.43;;;;;;;1.63;63.82;98412.97;6288967;22;20000;-72
2024/01/25 10:54:14;;;;;;;16.75;9.85;;;;;;;1.43;64.50;98420.41;6291082;22;20008;-72
2024/01/25 10:56:47;;;;;;;18.83;10.65;;;;;;;1.42;64.46;98408.19;6284879;22;20007;-72
2024/01/25 10:59:13;;;;;;;19.55;10.38;;;;;;;1.39;64.98;98403.09;6275042;22;19999;-72
2024/01/25 11:01:43;;;;;;;18.38;11.18;;;;;;;1.38;65.16;98382.94;6274431;22;20004;-72
2024/01/25 11:04:13;;;;;;;15.10;9.65;;;;;;;1.13;64.86;98350.28;6273034;22;20008;-73
2024/01/25 11:06:39;;;;;;;19.45;10.75;;;;;;;1.49;64.54;98401.56;6275326;22;20015;-71
2024/01/25 11:09:08;;;;;;;18.70;10.68;;;;;;;1.54;64.67;98419.72;6275274;22;20091;-72
2024/01/25 11:11:37;;;;;;;18.73;11.20;;;;;;;1.68;63.93;98403.81;6275792;22;20198;-78
2024/01/25 11:14:03;;;;;;;20.25;11.43;;;;;;;1.49;64.91;98408.63;6274257;22;20008;-69
2024/01/25 11:16:30;;;;;;;22.55;12.32;;;;;;;1.48;65.54;98414.84;6275529;22;20004;-71
2024/01/25 11:18:59;;;;;;;21.85;11.23;;;;;;;1.54;64.97;98414.44;6275477;22;20003;-70
2024/01/25 11:21:42;;;;;;;22.08;12.10;;;;;;;1.63;65.29;98411.19;6274434;22;20313;-71